Time,TemperatureF,DewpointF,PressureIn,WindDirection,WindDirectionDegrees,WindSpeedMPH,WindSpeedGustMPH,Humidity,HourlyPrecipIn,Conditions,Clouds,dailyrainin,SoftwareType,DateUTC
2013-10-05 00:00:00,49.0,46.5,30.33,NNW,342,0.0,0.0,91,0.00,,,0.00,Wunderground v.1.15,2013-10-05 07:00:00,
2013-10-05 00:05:00,49.0,46.8,30.33,NNW,342,0.0,0.0,92,0.00,,,0.00,Wunderground v.1.15,2013-10-05 07:05:00,
2013-10-05 00:15:00,49.1,47.2,30.33,NNW,342,0.0,0.0,93,0.00,,,0.00,Wunderground v.1.15,2013-10-05 07:15:00,
2013-10-05 00:25:00,49.1,47.2,30.33,NNW,342,0.0,0.0,93,0.00,,,0.00,Wunderground v.1.15,2013-10-05 07:25:00,
2013-10-05 00:35:00,48.8,46.6,30.33,NNW,342,0.0,0.0,92,0.00,,,0.00,Wunderground v.1.15,2013-10-05 07:35:00,
2013-10-05 00:45:00,48.7,46.8,30.33,NNW,342,0.0,0.0,93,0.00,,,0.00,Wunderground v.1.15,2013-10-05 07:45:00,
2013-10-05 00:55:00,48.6,47.0,30.33,NNW,342,0.0,0.0,94,0.00,,,0.00,Wunderground v.1.15,2013-10-05 07:55:00,
2013-10-05 01:05:00,48.4,46.5,30.33,NNW,342,0.0,0.0,93,0.00,,,0.00,Wunderground v.1.15,2013-10-05 08:05:00,
2013-10-05 01:15:00,48.1,46.2,30.33,NNW,342,0.0,0.0,93,0.00,,,0.00,Wunderground v.1.15,2013-10-05 08:15:00,
2013-10-05 01:25:00,47.9,46.3,30.33,NNW,342,0.0,0.0,94,0.00,,,0.00,Wunderground v.1.15,2013-10-05 08:25:00,
2013-10-05 01:35:00,47.9,46.3,30.33,NNW,342,0.0,0.0,94,0.00,,,0.00,Wunderground v.1.15,2013-10-05 08:35:00,
2013-10-05 01:45:00,47.9,46.3,30.33,NNW,342,0.0,0.0,94,0.00,,,0.00,Wunderground v.1.15,2013-10-05 08:45:00,
2013-10-05 01:55:00,47.8,46.2,30.33,NNW,342,0.0,0.0,94,0.00,,,0.00,Wunderground v.1.15,2013-10-05 08:55:00,
2013-10-05 02:05:00,47.9,46.5,30.33,NNW,342,0.0,0.0,95,0.00,,,0.00,Wunderground v.1.15,2013-10-05 09:05:00,
2013-10-05 02:15:00,47.9,46.5,30.33,NNW,342,0.0,0.0,95,0.00,,,0.00,Wunderground v.1.15,2013-10-05 09:15:00,
2013-10-05 02:25:00,47.9,46.5,30.33,NNW,342,0.0,0.0,95,0.00,,,0.00,Wunderground v.1.15,2013-10-05 09:25:00,
2013-10-05 02:35:00,47.8,46.4,30.33,NNW,342,0.0,0.0,95,0.00,,,0.00,Wunderground v.1.15,2013-10-05 09:35:00,
2013-10-05 02:45:00,47.7,46.3,30.33,NNW,342,0.0,0.0,95,0.00,,,0.00,Wunderground v.1.15,2013-10-05 09:45:00,
2013-10-05 02:55:00,47.7,46.3,30.32,NNW,342,0.0,0.0,95,0.00,,,0.00,Wunderground v.1.15,2013-10-05 09:55:00,
2013-10-05 03:05:00,47.7,46.3,30.33,NNW,342,0.0,0.0,95,0.00,,,0.00,Wunderground v.1.15,2013-10-05 10:05:00,
2013-10-05 03:15:00,47.6,46.2,30.32,NNW,342,0.0,0.0,95,0.00,,,0.00,Wunderground v.1.15,2013-10-05 10:15:00,
2013-10-05 03:20:00,47.6,46.2,30.32,NNW,342,0.0,0.0,95,0.00,,,0.00,Wunderground v.1.15,2013-10-05 10:20:00,
2013-10-05 03:25:00,47.6,46.2,30.32,NNW,342,0.0,0.0,95,0.00,,,0.00,Wunderground v.1.15,2013-10-05 10:25:00,
2013-10-05 03:35:00,47.4,46.0,30.32,NNW,342,0.0,0.0,95,0.00,,,0.00,Wunderground v.1.15,2013-10-05 10:35:00,
2013-10-05 03:40:00,47.4,46.0,30.32,NNW,342,0.0,0.0,95,0.00,,,0.00,Wunderground v.1.15,2013-10-05 10:40:00,
2013-10-05 03:45:00,47.4,46.0,30.32,NNW,342,0.0,0.0,95,0.00,,,0.00,Wunderground v.1.15,2013-10-05 10:45:00,
2013-10-05 03:55:00,47.7,46.3,30.32,NNW,342,0.0,0.0,95,0.00,,,0.00,Wunderground v.1.15,2013-10-05 10:55:00,
2013-10-05 04:05:00,47.4,46.0,30.32,NNW,342,0.0,0.0,95,0.00,,,0.00,Wunderground v.1.15,2013-10-05 11:05:00,
2013-10-05 04:15:00,47.3,45.9,30.31,NNW,342,0.0,0.0,95,0.00,,,0.00,Wunderground v.1.15,2013-10-05 11:15:00,
2013-10-05 04:25:00,47.4,46.0,30.31,NNW,342,0.0,0.0,95,0.00,,,0.00,Wunderground v.1.15,2013-10-05 11:25:00,
2013-10-05 04:35:00,47.3,45.9,30.31,NNW,342,0.0,0.0,95,0.00,,,0.00,Wunderground v.1.15,2013-10-05 11:35:00,
2013-10-05 04:45:00,47.3,45.9,30.31,NNW,342,0.0,0.0,95,0.00,,,0.00,Wunderground v.1.15,2013-10-05 11:45:00,
2013-10-05 04:55:00,47.1,45.7,30.31,NNW,342,0.0,0.0,95,0.00,,,0.00,Wunderground v.1.15,2013-10-05 11:55:00,
2013-10-05 05:05:00,47.0,45.6,30.31,NNW,342,0.0,0.0,95,0.00,,,0.00,Wunderground v.1.15,2013-10-05 12:05:00,
2013-10-05 05:15:00,47.1,45.7,30.31,NNW,342,0.0,0.0,95,0.00,,,0.00,Wunderground v.1.15,2013-10-05 12:15:00,
2013-10-05 05:20:00,47.1,45.7,30.31,NNW,342,0.0,0.0,95,0.00,,,0.00,Wunderground v.1.15,2013-10-05 12:20:00,
2013-10-05 05:25:00,47.0,45.6,30.31,NNW,342,0.0,0.0,95,0.00,,,0.00,Wunderground v.1.15,2013-10-05 12:25:00,
2013-10-05 05:35:00,46.6,45.2,30.31,NNW,342,0.0,0.0,95,0.00,,,0.00,Wunderground v.1.15,2013-10-05 12:35:00,
2013-10-05 05:45:00,46.2,44.8,30.32,NNW,342,0.0,0.0,95,0.00,,,0.00,Wunderground v.1.15,2013-10-05 12:45:00,
2013-10-05 05:55:00,46.2,44.8,30.32,NNW,342,0.0,0.0,95,0.00,,,0.00,Wunderground v.1.15,2013-10-05 12:55:00,
2013-10-05 06:05:00,46.0,44.6,30.31,NNW,342,0.0,0.0,95,0.00,,,0.00,Wunderground v.1.15,2013-10-05 13:05:00,
2013-10-05 06:15:00,46.0,44.6,30.32,NNW,342,0.0,0.0,95,0.00,,,0.00,Wunderground v.1.15,2013-10-05 13:15:00,
2013-10-05 06:25:00,46.0,44.6,30.32,NNW,342,0.0,0.0,95,0.00,,,0.00,Wunderground v.1.15,2013-10-05 13:25:00,
2013-10-05 06:35:00,46.2,45.1,30.32,NW,310,0.0,1.0,96,0.00,,,0.00,Wunderground v.1.15,2013-10-05 13:35:00,
2013-10-05 06:45:00,46.3,45.2,30.32,NW,310,0.0,0.0,96,0.00,,,0.00,Wunderground v.1.15,2013-10-05 13:45:00,
2013-10-05 06:55:00,46.3,45.2,30.32,NW,310,0.0,0.0,96,0.00,,,0.00,Wunderground v.1.15,2013-10-05 13:55:00,
2013-10-05 07:05:00,46.3,45.2,30.31,NW,310,0.0,0.0,96,0.00,,,0.01,Wunderground v.1.15,2013-10-05 14:05:00,
2013-10-05 07:15:00,46.1,45.0,30.31,NW,310,0.0,0.0,96,0.00,,,0.01,Wunderground v.1.15,2013-10-05 14:15:00,
2013-10-05 07:25:00,46.0,44.6,30.31,NW,310,0.0,0.0,95,0.00,,,0.01,Wunderground v.1.15,2013-10-05 14:25:00,
2013-10-05 07:35:00,46.0,44.9,30.31,NW,310,0.0,2.0,96,0.00,,,0.01,Wunderground v.1.15,2013-10-05 14:35:00,
2013-10-05 07:45:00,46.3,45.2,30.31,NW,310,0.0,2.0,96,0.00,,,0.01,Wunderground v.1.15,2013-10-05 14:45:00,
2013-10-05 07:55:00,47.4,46.3,30.31,NW,310,0.0,2.0,96,0.00,,,0.01,Wunderground v.1.15,2013-10-05 14:55:00,
2013-10-05 08:05:00,48.0,46.9,30.31,NW,310,0.0,0.0,96,0.00,,,0.01,Wunderground v.1.15,2013-10-05 15:05:00,
2013-10-05 08:15:00,48.5,47.4,30.31,NW,310,0.0,0.0,96,0.00,,,0.01,Wunderground v.1.15,2013-10-05 15:15:00,
2013-10-05 08:25:00,49.5,48.7,30.31,NW,310,0.0,0.0,97,0.00,,,0.01,Wunderground v.1.15,2013-10-05 15:25:00,
2013-10-05 08:35:00,51.0,50.2,30.31,NW,310,0.0,0.0,97,0.00,,,0.01,Wunderground v.1.15,2013-10-05 15:35:00,
2013-10-05 08:45:00,52.8,50.5,30.31,NW,310,0.0,0.0,92,0.00,,,0.01,Wunderground v.1.15,2013-10-05 15:45:00,
2013-10-05 08:55:00,54.7,50.0,30.31,North,359,0.0,0.0,84,0.00,,,0.01,Wunderground v.1.15,2013-10-05 15:55:00,
2013-10-05 09:00:00,55.4,50.3,30.31,North,359,0.0,0.0,83,0.00,,,0.01,Wunderground v.1.15,2013-10-05 16:00:00,
2013-10-05 09:10:00,56.2,50.8,30.30,North,359,0.0,0.0,82,0.00,,,0.01,Wunderground v.1.15,2013-10-05 16:10:00,
2013-10-05 09:15:00,56.6,50.8,30.30,North,360,0.0,0.0,81,0.00,,,0.01,Wunderground v.1.15,2013-10-05 16:15:00,
2013-10-05 09:25:00,57.4,50.6,30.30,SE,129,0.0,0.0,78,0.00,,,0.01,Wunderground v.1.15,2013-10-05 16:25:00,
2013-10-05 09:35:00,58.2,51.0,30.30,SSE,153,0.0,0.0,77,0.00,,,0.01,Wunderground v.1.15,2013-10-05 16:35:00,
2013-10-05 09:45:00,59.1,51.5,30.30,WNW,293,0.0,0.0,76,0.00,,,0.01,Wunderground v.1.15,2013-10-05 16:45:00,
2013-10-05 09:55:00,58.3,51.5,30.30,SSW,210,0.0,0.0,78,0.00,,,0.01,Wunderground v.1.15,2013-10-05 16:55:00,
2013-10-05 10:05:00,57.4,51.3,30.30,NE,37,0.0,0.0,80,0.00,,,0.01,Wunderground v.1.15,2013-10-05 17:05:00,
2013-10-05 10:15:00,59.1,52.2,30.30,SSE,168,0.0,0.0,78,0.00,,,0.01,Wunderground v.1.15,2013-10-05 17:15:00,
2013-10-05 10:25:00,60.5,52.2,30.30,SE,145,0.0,0.0,74,0.00,,,0.01,Wunderground v.1.15,2013-10-05 17:25:00,
2013-10-05 10:35:00,61.8,52.7,30.30,SSE,160,0.0,1.0,72,0.00,,,0.01,Wunderground v.1.15,2013-10-05 17:35:00,
2013-10-05 10:45:00,61.9,52.4,30.30,South,175,0.0,1.0,71,0.00,,,0.01,Wunderground v.1.15,2013-10-05 17:45:00,
2013-10-05 10:55:00,62.7,52.8,30.29,South,175,0.0,1.0,70,0.00,,,0.01,Wunderground v.1.15,2013-10-05 17:55:00,
2013-10-05 11:05:00,64.0,52.8,30.29,South,175,0.0,0.0,67,0.00,,,0.01,Wunderground v.1.15,2013-10-05 18:05:00,
2013-10-05 11:15:00,64.8,52.8,30.28,South,175,0.0,0.0,65,0.00,,,0.01,Wunderground v.1.15,2013-10-05 18:15:00,
2013-10-05 11:25:00,65.2,52.7,30.28,South,175,0.0,0.0,64,0.00,,,0.01,Wunderground v.1.15,2013-10-05 18:25:00,
2013-10-05 11:35:00,65.3,52.4,30.28,South,175,0.0,1.0,63,0.00,,,0.01,Wunderground v.1.15,2013-10-05 18:35:00,
2013-10-05 11:45:00,65.2,52.3,30.28,SSE,164,0.0,1.0,63,0.00,,,0.01,Wunderground v.1.15,2013-10-05 18:45:00,
2013-10-05 11:55:00,65.5,52.6,30.27,NNE,23,0.0,1.0,63,0.00,,,0.01,Wunderground v.1.15,2013-10-05 18:55:00,
2013-10-05 12:05:00,66.3,52.4,30.27,NE,34,0.0,0.0,61,0.00,,,0.01,Wunderground v.1.15,2013-10-05 19:05:00,
2013-10-05 12:10:00,66.6,51.8,30.27,ENE,73,0.0,0.0,59,0.00,,,0.01,Wunderground v.1.15,2013-10-05 19:10:00,
2013-10-05 12:15:00,66.2,51.0,30.26,ENE,73,0.0,0.0,58,0.00,,,0.01,Wunderground v.1.15,2013-10-05 19:15:00,
2013-10-05 12:25:00,66.3,50.1,30.26,WNW,295,0.0,0.0,56,0.00,,,0.01,Wunderground v.1.15,2013-10-05 19:25:00,
2013-10-05 12:35:00,69.0,50.1,30.26,NNE,13,0.0,1.0,51,0.00,,,0.01,Wunderground v.1.15,2013-10-05 19:35:00,
2013-10-05 12:45:00,70.1,50.0,30.26,NW,307,0.0,2.0,49,0.00,,,0.01,Wunderground v.1.15,2013-10-05 19:45:00,
2013-10-05 12:55:00,70.3,50.2,30.25,NNW,327,1.0,1.0,49,0.00,,,0.01,Wunderground v.1.15,2013-10-05 19:55:00,
2013-10-05 13:05:00,70.4,49.8,30.24,NW,311,0.0,0.0,48,0.00,,,0.01,Wunderground v.1.15,2013-10-05 20:05:00,
2013-10-05 13:10:00,70.9,49.7,30.24,North,360,0.0,0.0,47,0.00,,,0.01,Wunderground v.1.15,2013-10-05 20:10:00,
2013-10-05 13:15:00,72.2,50.3,30.24,NNW,330,0.0,0.0,46,0.00,,,0.01,Wunderground v.1.15,2013-10-05 20:15:00,
2013-10-05 13:25:00,73.4,50.8,30.23,North,1,0.0,1.0,45,0.00,,,0.01,Wunderground v.1.15,2013-10-05 20:25:00,
2013-10-05 13:35:00,74.5,50.5,30.23,North,357,0.0,1.0,43,0.00,,,0.01,Wunderground v.1.15,2013-10-05 20:35:00,
2013-10-05 13:45:00,73.7,49.8,30.23,NW,315,0.0,1.0,43,0.00,,,0.01,Wunderground v.1.15,2013-10-05 20:45:00,
2013-10-05 13:55:00,72.2,48.5,30.22,NNE,15,1.0,1.0,43,0.00,,,0.01,Wunderground v.1.15,2013-10-05 20:55:00,
2013-10-05 14:05:00,71.8,48.1,30.22,NW,323,1.0,1.0,43,0.00,,,0.01,Wunderground v.1.15,2013-10-05 21:05:00,
2013-10-05 14:15:00,71.7,48.0,30.21,NW,324,1.0,1.0,43,0.00,,,0.01,Wunderground v.1.15,2013-10-05 21:15:00,
2013-10-05 14:25:00,70.9,48.5,30.21,NW,321,1.0,3.0,45,0.00,,,0.01,Wunderground v.1.15,2013-10-05 21:25:00,
2013-10-05 14:35:00,71.2,48.8,30.21,NNW,330,1.0,2.0,45,0.00,,,0.01,Wunderground v.1.15,2013-10-05 21:35:00,
2013-10-05 14:45:00,72.0,48.3,30.20,NNE,17,1.0,3.0,43,0.00,,,0.01,Wunderground v.1.15,2013-10-05 21:45:00,
2013-10-05 14:55:00,71.4,45.8,30.20,NW,314,2.0,2.0,40,0.00,,,0.01,Wunderground v.1.15,2013-10-05 21:55:00,
2013-10-05 15:05:00,71.7,46.1,30.20,NW,314,1.0,2.0,40,0.00,,,0.01,Wunderground v.1.15,2013-10-05 22:05:00,
2013-10-05 15:15:00,72.7,46.3,30.20,NW,319,1.0,1.0,39,0.00,,,0.01,Wunderground v.1.15,2013-10-05 22:15:00,
2013-10-05 15:20:00,72.4,46.7,30.19,North,358,1.0,1.0,40,0.00,,,0.01,Wunderground v.1.15,2013-10-05 22:20:00,
2013-10-05 15:25:00,71.9,48.2,30.19,NW,316,2.0,2.0,43,0.00,,,0.01,Wunderground v.1.15,2013-10-05 22:25:00,
2013-10-05 15:35:00,73.5,48.4,30.19,NNW,345,0.0,8.0,41,0.00,,,0.01,Wunderground v.1.15,2013-10-05 22:35:00,
2013-10-05 15:45:00,74.0,48.1,30.18,NW,316,1.0,8.0,40,0.00,,,0.01,Wunderground v.1.15,2013-10-05 22:45:00,
2013-10-05 15:55:00,72.9,48.5,30.18,NW,313,1.0,8.0,42,0.00,,,0.01,Wunderground v.1.15,2013-10-05 22:55:00,
2013-10-05 16:00:00,72.9,49.1,30.18,NNW,338,0.0,0.0,43,0.00,,,0.01,Wunderground v.1.15,2013-10-05 23:00:00,
2013-10-05 16:10:00,70.9,48.5,30.18,North,350,1.0,1.0,45,0.00,,,0.01,Wunderground v.1.15,2013-10-05 23:10:00,
2013-10-05 16:15:00,69.9,49.3,30.17,NW,307,0.0,1.0,48,0.00,,,0.01,Wunderground v.1.15,2013-10-05 23:15:00,
2013-10-05 16:25:00,68.3,48.9,30.17,NE,38,1.0,3.0,50,0.00,,,0.01,Wunderground v.1.15,2013-10-05 23:25:00,
2013-10-05 16:35:00,67.3,46.4,30.17,NNW,345,1.0,8.0,47,0.00,,,0.01,Wunderground v.1.15,2013-10-05 23:35:00,
2013-10-05 16:40:00,66.9,46.6,30.17,WNW,299,1.0,8.0,48,0.00,,,0.01,Wunderground v.1.15,2013-10-05 23:40:00,
2013-10-05 16:45:00,66.5,46.7,30.17,North,2,1.0,8.0,49,0.00,,,0.01,Wunderground v.1.15,2013-10-05 23:45:00,
2013-10-05 16:55:00,65.9,44.5,30.17,NW,312,1.0,8.0,46,0.00,,,0.01,Wunderground v.1.15,2013-10-05 23:55:00,
2013-10-05 17:05:00,65.4,45.7,30.16,WNW,293,1.0,4.0,49,0.00,,,0.01,Wunderground v.1.15,2013-10-06 00:05:00,
2013-10-05 17:15:00,65.2,47.1,30.16,North,355,0.0,0.0,52,0.00,,,0.01,Wunderground v.1.15,2013-10-06 00:15:00,
2013-10-05 17:25:00,64.8,47.8,30.16,WNW,299,0.0,0.0,54,0.00,,,0.01,Wunderground v.1.15,2013-10-06 00:25:00,
2013-10-05 17:35:00,64.3,47.8,30.16,WNW,293,1.0,1.0,55,0.00,,,0.01,Wunderground v.1.15,2013-10-06 00:35:00,
2013-10-05 17:45:00,63.7,47.7,30.15,NNW,346,1.0,10.0,56,0.00,,,0.01,Wunderground v.1.15,2013-10-06 00:45:00,
2013-10-05 17:55:00,63.2,47.7,30.15,North,351,1.0,10.0,57,0.00,,,0.01,Wunderground v.1.15,2013-10-06 00:55:00,
2013-10-05 18:05:00,62.7,47.2,30.15,NW,314,0.0,1.0,57,0.00,,,0.01,Wunderground v.1.15,2013-10-06 01:05:00,
2013-10-05 18:15:00,62.2,46.3,30.15,North,355,0.0,0.0,56,0.00,,,0.01,Wunderground v.1.15,2013-10-06 01:15:00,
2013-10-05 18:25:00,61.6,45.7,30.14,NNE,19,0.0,0.0,56,0.00,,,0.01,Wunderground v.1.15,2013-10-06 01:25:00,
2013-10-05 18:35:00,60.9,46.0,30.14,NNE,13,0.0,7.0,58,0.00,,,0.01,Wunderground v.1.15,2013-10-06 01:35:00,
2013-10-05 18:40:00,60.7,46.3,30.14,NW,315,0.0,7.0,59,0.00,,,0.01,Wunderground v.1.15,2013-10-06 01:40:00,
2013-10-05 18:45:00,60.5,47.0,30.14,North,359,0.0,7.0,61,0.00,,,0.01,Wunderground v.1.15,2013-10-06 01:45:00,
2013-10-05 18:55:00,59.9,47.3,30.14,North,1,0.0,7.0,63,0.00,,,0.01,Wunderground v.1.15,2013-10-06 01:55:00,
2013-10-05 19:05:00,59.3,47.9,30.14,NNE,12,0.0,0.0,66,0.00,,,0.01,Wunderground v.1.15,2013-10-06 02:05:00,
2013-10-05 19:15:00,58.9,48.4,30.15,NNE,16,0.0,0.0,68,0.00,,,0.01,Wunderground v.1.15,2013-10-06 02:15:00,
2013-10-05 19:25:00,58.5,48.4,30.15,NW,310,0.0,0.0,69,0.00,,,0.01,Wunderground v.1.15,2013-10-06 02:25:00,
2013-10-05 19:35:00,58.3,48.9,30.14,NW,323,1.0,1.0,71,0.00,,,0.01,Wunderground v.1.15,2013-10-06 02:35:00,
2013-10-05 19:45:00,57.9,48.9,30.14,NNE,33,0.0,3.0,72,0.00,,,0.01,Wunderground v.1.15,2013-10-06 02:45:00,
2013-10-05 19:55:00,57.4,48.8,30.14,NNE,14,0.0,3.0,73,0.00,,,0.01,Wunderground v.1.15,2013-10-06 02:55:00,
2013-10-05 20:05:00,57.0,48.8,30.14,North,8,0.0,1.0,74,0.00,,,0.01,Wunderground v.1.15,2013-10-06 03:05:00,
2013-10-05 20:15:00,56.6,48.4,30.14,North,1,0.0,0.0,74,0.00,,,0.01,Wunderground v.1.15,2013-10-06 03:15:00,
2013-10-05 20:25:00,56.3,48.1,30.14,NNE,16,0.0,0.0,74,0.00,,,0.01,Wunderground v.1.15,2013-10-06 03:25:00,
2013-10-05 20:35:00,56.0,47.8,30.14,WNW,287,0.0,4.0,74,0.00,,,0.01,Wunderground v.1.15,2013-10-06 03:35:00,
2013-10-05 20:45:00,55.7,47.9,30.14,NNE,29,0.0,4.0,75,0.00,,,0.01,Wunderground v.1.15,2013-10-06 03:45:00,
2013-10-05 20:55:00,55.5,47.7,30.14,NNW,343,0.0,4.0,75,0.00,,,0.01,Wunderground v.1.15,2013-10-06 03:55:00,
2013-10-05 21:05:00,55.3,47.9,30.14,NNE,14,0.0,0.0,76,0.00,,,0.01,Wunderground v.1.15,2013-10-06 04:05:00,
2013-10-05 21:10:00,55.3,48.2,30.14,NNE,14,0.0,0.0,77,0.00,,,0.01,Wunderground v.1.15,2013-10-06 04:10:00,
2013-10-05 21:15:00,55.2,48.1,30.14,NNW,339,0.0,0.0,77,0.00,,,0.01,Wunderground v.1.15,2013-10-06 04:15:00,
2013-10-05 21:20:00,55.0,48.3,30.13,North,9,0.0,0.0,78,0.00,,,0.01,Wunderground v.1.15,2013-10-06 04:20:00,
2013-10-05 21:25:00,54.9,48.2,30.14,North,9,0.0,0.0,78,0.00,,,0.01,Wunderground v.1.15,2013-10-06 04:25:00,
2013-10-05 21:35:00,54.6,48.2,30.13,NW,316,0.0,3.0,79,0.00,,,0.01,Wunderground v.1.15,2013-10-06 04:35:00,
2013-10-05 21:40:00,54.5,48.1,30.14,North,357,0.0,3.0,79,0.00,,,0.01,Wunderground v.1.15,2013-10-06 04:40:00,
2013-10-05 21:45:00,54.2,48.2,30.14,North,357,0.0,3.0,80,0.00,,,0.01,Wunderground v.1.15,2013-10-06 04:45:00,
2013-10-05 21:55:00,54.0,48.0,30.13,NNW,332,0.0,3.0,80,0.00,,,0.01,Wunderground v.1.15,2013-10-06 04:55:00,
2013-10-05 22:00:00,53.9,47.9,30.13,NNW,332,0.0,0.0,80,0.00,,,0.01,Wunderground v.1.15,2013-10-06 05:00:00,
2013-10-05 22:05:00,53.6,47.6,30.13,North,360,0.0,0.0,80,0.00,,,0.01,Wunderground v.1.15,2013-10-06 05:05:00,
2013-10-05 22:15:00,53.2,47.5,30.13,North,360,0.0,0.0,81,0.00,,,0.01,Wunderground v.1.15,2013-10-06 05:15:00,
2013-10-05 22:25:00,53.0,47.3,30.13,North,6,0.0,0.0,81,0.00,,,0.01,Wunderground v.1.15,2013-10-06 05:25:00,
2013-10-05 22:35:00,53.0,47.3,30.13,NNE,22,0.0,1.0,81,0.00,,,0.01,Wunderground v.1.15,2013-10-06 05:35:00,
2013-10-05 22:45:00,53.1,47.4,30.12,NW,313,0.0,1.0,81,0.00,,,0.01,Wunderground v.1.15,2013-10-06 05:45:00,
2013-10-05 22:55:00,53.0,47.3,30.12,NW,312,0.0,1.0,81,0.00,,,0.01,Wunderground v.1.15,2013-10-06 05:55:00,
2013-10-05 23:05:00,52.8,47.1,30.12,NW,312,0.0,0.0,81,0.00,,,0.01,Wunderground v.1.15,2013-10-06 06:05:00,
2013-10-05 23:15:00,52.5,47.2,30.12,NW,312,0.0,0.0,82,0.00,,,0.01,Wunderground v.1.15,2013-10-06 06:15:00,
2013-10-05 23:25:00,52.1,47.1,30.12,NW,312,0.0,0.0,83,0.00,,,0.01,Wunderground v.1.15,2013-10-06 06:25:00,
2013-10-05 23:35:00,51.9,46.9,30.11,NW,312,0.0,0.0,83,0.00,,,0.01,Wunderground v.1.15,2013-10-06 06:35:00,
2013-10-05 23:45:00,51.5,46.8,30.11,NW,312,0.0,0.0,84,0.00,,,0.01,Wunderground v.1.15,2013-10-06 06:45:00,
2013-10-05 23:55:00,51.4,47.0,30.11,NW,312,0.0,0.0,85,0.00,,,0.01,Wunderground v.1.15,2013-10-06 06:55:00,